createdAt,value
2023-05-23T00:00:58.364Z,99137.43
2023-05-23T00:03:25.896Z,99140.33
2023-05-23T00:05:53.204Z,99137.23
2023-05-23T00:08:20.440Z,99136.39
2023-05-23T00:10:47.680Z,99136.61
2023-05-23T00:13:14.962Z,99136.45
2023-05-23T00:15:42.402Z,99142.30
2023-05-23T00:18:11.789Z,99137.88
2023-05-23T00:20:43.004Z,99140.25
2023-05-23T00:23:10.414Z,99137.73
2023-05-23T00:25:38.136Z,99138.09
2023-05-23T00:28:06.264Z,99134.44
2023-05-23T00:30:34.034Z,99136.54
2023-05-23T00:33:01.679Z,99134.95
2023-05-23T00:35:29.004Z,99134.71
2023-05-23T00:37:56.352Z,99134.52
2023-05-23T00:40:23.725Z,99134.39
2023-05-23T00:42:50.982Z,99131.11
2023-05-23T00:45:18.367Z,99130.52
2023-05-23T00:47:46.162Z,99132.75
2023-05-23T00:50:14.742Z,99129.23
2023-05-23T00:52:45.652Z,99126.63
2023-05-23T00:55:13.233Z,99122.63
2023-05-23T00:57:40.590Z,99120.36
2023-05-23T01:00:10.226Z,99123.73
2023-05-23T01:02:45.275Z,99124.71
2023-05-23T01:05:14.908Z,99126.13
2023-05-23T01:07:42.140Z,99126.59
2023-05-23T01:10:10.107Z,99124.14
2023-05-23T01:12:37.306Z,99125.27
2023-05-23T01:15:06.524Z,99128.30
2023-05-23T01:17:33.799Z,99126.61
2023-05-23T01:20:07.950Z,99129.35
2023-05-23T01:22:42.093Z,99125.99
2023-05-23T01:25:09.470Z,99129.21
2023-05-23T01:27:42.842Z,99133.52
2023-05-23T01:30:10.247Z,99125.81
2023-05-23T01:32:37.495Z,99133.92
2023-05-23T01:35:05.020Z,99135.27
2023-05-23T01:37:32.390Z,99132.94
2023-05-23T01:39:59.676Z,99134.45
2023-05-23T01:42:28.293Z,99134.77
2023-05-23T01:44:59.282Z,99130.80
2023-05-23T01:47:26.605Z,99126.11
2023-05-23T01:49:53.877Z,99127.27
2023-05-23T01:52:21.198Z,99127.28
2023-05-23T01:54:49.244Z,99121.52
2023-05-23T01:57:16.650Z,99116.94
2023-05-23T01:59:43.882Z,99112.94
2023-05-23T02:02:11.210Z,99113.39
2023-05-23T02:04:38.538Z,99110.09
2023-05-23T02:07:06.344Z,99112.85
2023-05-23T02:09:33.538Z,99111.24
2023-05-23T02:12:00.793Z,99116.27
2023-05-23T02:14:28.554Z,99119.65
2023-05-23T02:16:55.917Z,99117.67
2023-05-23T02:19:23.320Z,99114.75
2023-05-23T02:21:50.622Z,99111.64
2023-05-23T02:24:18.927Z,99109.51
2023-05-23T02:26:46.224Z,99107.28
2023-05-23T02:29:13.457Z,99105.33
2023-05-23T02:31:40.748Z,99101.02
2023-05-23T02:34:08.077Z,99092.36
2023-05-23T02:36:37.158Z,99093.48
2023-05-23T02:39:05.608Z,99094.14
2023-05-23T02:41:33.144Z,99091.30
2023-05-23T02:44:00.567Z,99090.52
2023-05-23T02:46:28.156Z,99090.67
2023-05-23T02:48:55.648Z,99088.31
2023-05-23T02:51:22.929Z,99090.77
2023-05-23T02:53:50.272Z,99091.92
2023-05-23T02:56:18.952Z,99094.09
2023-05-23T02:58:46.572Z,99094.04
2023-05-23T03:01:13.867Z,99092.42
2023-05-23T03:03:42.113Z,99097.60
2023-05-23T03:06:14.459Z,99095.67
2023-05-23T03:08:41.965Z,99091.65
2023-05-23T03:11:09.387Z,99093.48
2023-05-23T03:13:36.688Z,99091.27
2023-05-23T03:16:04.041Z,99093.09
2023-05-23T03:18:31.390Z,99092.00
2023-05-23T03:20:58.666Z,99088.48
2023-05-23T03:23:26.040Z,99086.05
2023-05-23T03:25:53.327Z,99083.33
2023-05-23T03:28:21.567Z,99079.95
2023-05-23T03:30:48.871Z,99081.48
2023-05-23T03:33:16.355Z,99081.86
2023-05-23T03:35:44.794Z,99081.96
2023-05-23T03:38:12.104Z,99082.73
2023-05-23T03:40:39.396Z,99081.84
2023-05-23T03:43:06.802Z,99077.95
2023-05-23T03:45:36.435Z,99075.23
2023-05-23T03:48:06.959Z,99069.91
2023-05-23T03:50:34.288Z,99067.45
2023-05-23T03:53:01.612Z,99064.60
2023-05-23T03:55:32.113Z,99066.10
2023-05-23T03:57:59.574Z,99068.02
2023-05-23T04:00:27.915Z,99069.42
2023-05-23T04:02:56.013Z,99069.15
2023-05-23T04:05:24.650Z,99064.84
2023-05-23T04:07:52.734Z,99065.77
2023-05-23T04:10:20.063Z,99063.07
2023-05-23T04:12:48.199Z,99062.38
2023-05-23T04:15:18.169Z,99059.86
2023-05-23T04:18:09.405Z,99056.00
2023-05-23T04:20:37.341Z,99054.02
2023-05-23T04:23:05.396Z,99052.42
2023-05-23T04:25:35.387Z,99056.00
2023-05-23T04:28:11.357Z,99055.21
2023-05-23T04:30:39.421Z,99052.48
2023-05-23T04:33:07.926Z,99049.33
2023-05-23T04:35:39.163Z,99048.59
2023-05-23T04:38:07.046Z,99049.23
2023-05-23T04:40:34.436Z,99047.95
2023-05-23T04:43:16.505Z,99053.90
2023-05-23T04:45:57.807Z,99055.96
2023-05-23T04:48:39.102Z,99056.38
2023-05-23T04:51:07.911Z,99051.15
2023-05-23T04:53:38.746Z,99050.74
2023-05-23T04:56:08.745Z,99053.45
2023-05-23T04:58:37.926Z,99051.30
2023-05-23T05:01:09.905Z,99057.41
2023-05-23T05:03:37.424Z,99060.77
2023-05-23T05:06:06.047Z,99057.59
2023-05-23T05:08:33.337Z,99060.20
2023-05-23T05:11:00.730Z,99068.83
2023-05-23T05:13:28.099Z,99065.98
2023-05-23T05:15:57.088Z,99065.59
2023-05-23T05:18:28.514Z,99068.27
2023-05-23T05:20:57.317Z,99066.25
2023-05-23T05:23:25.553Z,99066.48
2023-05-23T05:25:52.819Z,99063.00
2023-05-23T05:28:21.908Z,99066.09
2023-05-23T05:30:55.541Z,99071.59
2023-05-23T05:33:28.474Z,99072.87
2023-05-23T05:36:06.606Z,99071.12
2023-05-23T05:38:33.991Z,99068.55
2023-05-23T05:41:01.423Z,99064.73
2023-05-23T05:43:33.963Z,99062.55
2023-05-23T05:46:01.316Z,99060.45
2023-05-23T05:48:29.034Z,99059.75
2023-05-23T05:51:01.187Z,99055.56
2023-05-23T05:53:31.187Z,99052.27
2023-05-23T05:55:58.467Z,99052.30
2023-05-23T05:58:25.962Z,99049.80
2023-05-23T06:01:05.861Z,99048.52
2023-05-23T06:03:34.029Z,99043.71
2023-05-23T06:06:01.621Z,99047.60
2023-05-23T06:08:29.136Z,99046.81
2023-05-23T06:10:57.019Z,99047.48
2023-05-23T06:13:25.476Z,99046.98
2023-05-23T06:15:53.905Z,99047.58
2023-05-23T06:18:21.535Z,99052.71
2023-05-23T06:20:49.069Z,99046.64
2023-05-23T06:23:17.213Z,99045.52
2023-05-23T06:25:45.478Z,99048.94
2023-05-23T06:28:12.968Z,99045.32
2023-05-23T06:30:40.510Z,99041.29
2023-05-23T06:33:08.697Z,99045.30
2023-05-23T06:35:36.301Z,99043.77
2023-05-23T06:38:03.636Z,99040.23
2023-05-23T06:40:30.968Z,99037.94
2023-05-23T06:42:59.209Z,99034.40
2023-05-23T06:45:41.490Z,99031.20
2023-05-23T06:48:11.889Z,99027.38
2023-05-23T06:50:40.255Z,99027.58
2023-05-23T06:53:08.022Z,99027.09
2023-05-23T06:55:35.352Z,99024.93
2023-05-23T06:58:06.372Z,99028.13
2023-05-23T07:00:33.917Z,99029.06
2023-05-23T07:03:41.724Z,99030.70
2023-05-23T07:06:09.535Z,99032.65
2023-05-23T07:08:37.501Z,99035.63
2023-05-23T07:11:05.145Z,99032.77
2023-05-23T07:13:39.082Z,99036.04
2023-05-23T07:16:06.453Z,99034.92
2023-05-23T07:18:38.449Z,99033.65
2023-05-23T07:21:06.327Z,99031.65
2023-05-23T07:23:36.761Z,99030.58
2023-05-23T07:26:04.989Z,99030.21
2023-05-23T07:28:40.285Z,99034.15
2023-05-23T07:31:09.464Z,99025.05
2023-05-23T07:33:37.762Z,99024.66
2023-05-23T07:36:05.190Z,99029.14
2023-05-23T07:38:32.491Z,99022.29
2023-05-23T07:41:10.616Z,99020.95
2023-05-23T07:43:38.611Z,99018.06
2023-05-23T07:46:06.472Z,99014.16
2023-05-23T07:48:33.775Z,99018.45
2023-05-23T07:51:01.280Z,99019.14
2023-05-23T07:53:29.261Z,99015.71
2023-05-23T07:55:56.882Z,99008.78
2023-05-23T07:58:26.204Z,99009.73
2023-05-23T08:00:53.643Z,99008.54
2023-05-23T08:03:39.742Z,99009.81
2023-05-23T08:06:11.435Z,99006.95
2023-05-23T08:08:39.267Z,99004.81
2023-05-23T08:11:07.105Z,99008.64
2023-05-23T08:13:40.057Z,99008.59
2023-05-23T08:16:28.080Z,99006.34
2023-05-23T08:18:56.263Z,99000.67
2023-05-23T08:21:23.976Z,98998.80
2023-05-23T08:23:51.196Z,98997.38
2023-05-23T08:26:18.844Z,98990.34
2023-05-23T08:28:46.423Z,98987.89
2023-05-23T08:31:13.842Z,98991.25
2023-05-23T08:33:41.331Z,98986.83
2023-05-23T08:36:08.665Z,98987.55
2023-05-23T08:38:35.970Z,98989.55
2023-05-23T08:41:16.402Z,98990.86
2023-05-23T08:43:43.731Z,98991.16
2023-05-23T08:46:12.387Z,98988.84
2023-05-23T08:48:40.158Z,98979.46
2023-05-23T08:51:07.834Z,98970.02
2023-05-23T08:53:35.146Z,98981.73
2023-05-23T08:56:05.857Z,98976.90
2023-05-23T08:58:41.978Z,98976.42
2023-05-23T09:01:09.980Z,98977.02
2023-05-23T09:03:39.039Z,98969.89
2023-05-23T09:06:21.409Z,98970.23
2023-05-23T09:08:48.768Z,98972.34
2023-05-23T09:11:17.596Z,98970.04
2023-05-23T09:13:45.972Z,98967.24
2023-05-23T09:16:16.414Z,98968.30
2023-05-23T09:18:47.615Z,98967.73
2023-05-23T09:21:16.222Z,98965.17
2023-05-23T09:23:55.431Z,98968.83
2023-05-23T09:26:22.874Z,98970.77
2023-05-23T09:28:50.132Z,98967.33
2023-05-23T09:31:17.676Z,98971.30
2023-05-23T09:33:48.447Z,98974.79
2023-05-23T09:36:16.201Z,98979.36
2023-05-23T09:38:44.146Z,98977.23
2023-05-23T09:41:14.518Z,98972.31
2023-05-23T09:43:52.199Z,98969.63
2023-05-23T09:46:20.254Z,98972.96
2023-05-23T09:48:48.168Z,98969.38
2023-05-23T09:51:15.540Z,98972.30
2023-05-23T09:53:42.911Z,98971.49
2023-05-23T09:56:11.622Z,98964.27
2023-05-23T09:58:39.039Z,98963.27
2023-05-23T10:01:07.602Z,98963.42
2023-05-23T10:03:35.798Z,98958.84
2023-05-23T10:06:11.336Z,98956.30
2023-05-23T10:08:39.417Z,98953.04
2023-05-23T10:11:18.811Z,98948.18
2023-05-23T10:13:47.180Z,98945.36
2023-05-23T10:16:20.894Z,98941.48
2023-05-23T10:18:49.174Z,98943.39
2023-05-23T10:21:18.172Z,98940.41
2023-05-23T10:23:46.497Z,98935.05
2023-05-23T10:26:13.762Z,98931.95
2023-05-23T10:28:41.151Z,98936.16
2023-05-23T10:31:08.509Z,98934.54
2023-05-23T10:33:36.691Z,98931.92
2023-05-23T10:36:24.442Z,98932.05
2023-05-23T10:38:54.202Z,98928.45
2023-05-23T10:41:39.098Z,98926.88
2023-05-23T10:44:14.686Z,98932.39
2023-05-23T10:46:58.933Z,98929.98
2023-05-23T10:49:41.632Z,98930.49
2023-05-23T10:52:09.647Z,98931.57
2023-05-23T10:54:37.370Z,98929.24
2023-05-23T10:57:05.051Z,98929.58
2023-05-23T10:59:32.429Z,98924.00
2023-05-23T11:02:00.772Z,98921.70
2023-05-23T11:04:28.344Z,98918.34
2023-05-23T11:06:55.888Z,98922.30
2023-05-23T11:09:23.201Z,98921.48
2023-05-23T11:12:07.052Z,98922.23
2023-05-23T11:14:34.439Z,98920.12
2023-05-23T11:17:01.956Z,98919.98
2023-05-23T11:19:29.947Z,98915.89
2023-05-23T11:22:03.977Z,98911.25
2023-05-23T11:24:46.701Z,98911.53
2023-05-23T11:27:13.975Z,98909.91
2023-05-23T11:29:41.511Z,98910.51
2023-05-23T11:32:17.677Z,98907.63
2023-05-23T11:34:45.396Z,98910.90
2023-05-23T11:37:12.697Z,98908.70
2023-05-23T11:39:40.606Z,98912.77
2023-05-23T11:42:07.934Z,98907.92
2023-05-23T11:44:35.276Z,98907.00
2023-05-23T11:47:03.081Z,98904.52
2023-05-23T11:49:31.094Z,98903.15
2023-05-23T11:52:01.858Z,98903.02
2023-05-23T11:54:29.159Z,98902.14
2023-05-23T11:56:56.485Z,98902.01
2023-05-23T11:59:24.215Z,98899.48
2023-05-23T12:01:51.626Z,98895.94
2023-05-23T12:04:18.984Z,98888.69
2023-05-23T12:06:49.569Z,98891.45
2023-05-23T12:09:16.878Z,98891.01
2023-05-23T12:11:44.398Z,98892.52
2023-05-23T12:14:15.127Z,98892.64
2023-05-23T12:16:45.299Z,98889.71
2023-05-23T12:19:12.757Z,98887.19
2023-05-23T12:21:40.630Z,98889.94
2023-05-23T12:24:14.735Z,98884.98
2023-05-23T12:26:55.223Z,98881.48
2023-05-23T12:29:22.819Z,98877.63
2023-05-23T12:31:51.297Z,98872.94
2023-05-23T12:34:19.631Z,98876.98
2023-05-23T12:36:50.697Z,98878.00
2023-05-23T12:39:27.994Z,98871.84
2023-05-23T12:41:56.508Z,98871.45
2023-05-23T12:44:23.843Z,98870.73
2023-05-23T12:46:51.339Z,98869.89
2023-05-23T12:49:18.768Z,98870.54
2023-05-23T12:51:46.097Z,98867.64
2023-05-23T12:54:13.363Z,98867.95
2023-05-23T12:56:40.702Z,98865.50
2023-05-23T12:59:07.971Z,98865.28
2023-05-23T13:01:35.353Z,98862.04
2023-05-23T13:04:02.777Z,98853.46
2023-05-23T13:06:30.065Z,98849.42
2023-05-23T13:08:57.606Z,98850.43
2023-05-23T13:11:24.967Z,98849.27
2023-05-23T13:13:52.877Z,98851.76
2023-05-23T13:16:20.452Z,98848.87
2023-05-23T13:18:47.859Z,98845.52
2023-05-23T13:21:15.145Z,98848.27
2023-05-23T13:23:42.431Z,98845.13
2023-05-23T13:26:09.828Z,98840.62
2023-05-23T13:28:37.117Z,98846.48
2023-05-23T13:31:04.484Z,98840.79
2023-05-23T13:33:31.863Z,98837.25
2023-05-23T13:35:59.149Z,98834.38
2023-05-23T13:38:27.692Z,98832.41
2023-05-23T13:40:55.027Z,98829.31
2023-05-23T13:43:22.350Z,98834.38
2023-05-23T13:45:49.663Z,98832.95
2023-05-23T13:48:17.046Z,98827.10
2023-05-23T13:50:44.976Z,98825.41
2023-05-23T13:53:16.740Z,98829.25
2023-05-23T13:55:45.414Z,98832.89
2023-05-23T13:58:12.924Z,98834.13
2023-05-23T14:00:40.399Z,98829.23
2023-05-23T14:03:08.866Z,98830.48
2023-05-23T14:05:36.718Z,98828.73
2023-05-23T14:08:04.674Z,98829.06
2023-05-23T14:10:33.480Z,98825.15
2023-05-23T14:13:01.495Z,98826.35
2023-05-23T14:15:28.812Z,98825.07
2023-05-23T14:17:56.997Z,98824.14
2023-05-23T14:20:24.300Z,98822.96
2023-05-23T14:22:51.808Z,98816.99
2023-05-23T14:25:19.241Z,98811.77
2023-05-23T14:27:46.575Z,98813.19
2023-05-23T14:30:13.992Z,98815.97
2023-05-23T14:32:41.532Z,98818.89
2023-05-23T14:35:12.069Z,98817.21
2023-05-23T14:37:39.752Z,98819.70
2023-05-23T14:40:07.485Z,98817.15
2023-05-23T14:42:34.753Z,98812.21
2023-05-23T14:45:02.038Z,98813.57
2023-05-23T14:47:29.459Z,98814.92
2023-05-23T14:49:56.714Z,98813.61
2023-05-23T14:52:24.233Z,98815.24
2023-05-23T14:54:51.586Z,98814.59
2023-05-23T14:57:18.917Z,98811.42
2023-05-23T14:59:46.648Z,98808.82
2023-05-23T15:02:14.048Z,98809.36
2023-05-23T15:04:41.915Z,98809.46
2023-05-23T15:07:09.642Z,98808.33
2023-05-23T15:09:37.039Z,98809.14
2023-05-23T15:12:05.378Z,98806.21
2023-05-23T15:14:32.646Z,98804.63
2023-05-23T15:17:07.742Z,98803.01
2023-05-23T15:19:35.901Z,98802.67
2023-05-23T15:22:06.352Z,98800.99
2023-05-23T15:24:34.982Z,98799.52
2023-05-23T15:27:15.625Z,98801.90
2023-05-23T15:29:46.552Z,98798.35
2023-05-23T15:32:14.038Z,98797.85
2023-05-23T15:34:41.392Z,98801.65
2023-05-23T15:37:08.641Z,98798.40
2023-05-23T15:39:35.980Z,98801.00
2023-05-23T15:42:03.489Z,98802.46
2023-05-23T15:44:31.048Z,98798.27
2023-05-23T15:46:58.395Z,98803.48
2023-05-23T15:49:27.015Z,98800.74
2023-05-23T15:51:55.395Z,98806.85
2023-05-23T15:54:23.051Z,98803.23
2023-05-23T15:56:50.406Z,98802.13
2023-05-23T15:59:17.716Z,98802.52
2023-05-23T16:01:45.113Z,98803.02
2023-05-23T16:04:12.490Z,98801.25
2023-05-23T16:06:39.787Z,98799.10
2023-05-23T16:09:07.096Z,98801.39
2023-05-23T16:11:34.321Z,98799.94
2023-05-23T16:14:01.802Z,98799.30
2023-05-23T16:16:29.229Z,98797.81
2023-05-23T16:18:56.684Z,98798.36
2023-05-23T16:21:23.924Z,98795.79
2023-05-23T16:23:51.414Z,98799.22
2023-05-23T16:26:19.212Z,98793.71
2023-05-23T16:28:46.499Z,98794.94
2023-05-23T16:31:14.192Z,98793.03
2023-05-23T16:33:41.498Z,98790.81
2023-05-23T16:36:08.732Z,98787.67
2023-05-23T16:38:36.020Z,98789.28
2023-05-23T16:41:03.285Z,98790.52
2023-05-23T16:43:30.641Z,98791.41
2023-05-23T16:45:58.060Z,98792.02
2023-05-23T16:48:25.375Z,98788.08
2023-05-23T16:50:56.527Z,98789.67
2023-05-23T16:53:23.835Z,98783.38
2023-05-23T16:55:51.078Z,98782.81
2023-05-23T16:58:20.709Z,98781.42
2023-05-23T17:00:48.829Z,98781.84
2023-05-23T17:03:16.430Z,98782.07
2023-05-23T17:05:44.393Z,98783.88
2023-05-23T17:08:11.951Z,98783.73
2023-05-23T17:10:39.302Z,98782.83
2023-05-23T17:13:06.733Z,98785.24
2023-05-23T17:15:34.147Z,98788.58
2023-05-23T17:18:01.494Z,98786.41
2023-05-23T17:20:28.738Z,98787.30
2023-05-23T17:22:56.425Z,98790.19
2023-05-23T17:25:23.658Z,98786.08
2023-05-23T17:27:50.879Z,98786.17
2023-05-23T17:30:22.058Z,98785.96
2023-05-23T17:32:49.598Z,98790.02
2023-05-23T17:35:17.147Z,98791.76
2023-05-23T17:37:45.099Z,98794.83
2023-05-23T17:40:12.698Z,98795.23
2023-05-23T17:42:40.322Z,98795.38
2023-05-23T17:45:09.435Z,98801.70
2023-05-23T17:47:36.808Z,98798.19
2023-05-23T17:50:04.507Z,98799.46
2023-05-23T17:52:32.541Z,98800.68
2023-05-23T17:54:59.853Z,98804.11
2023-05-23T17:57:28.095Z,98807.84
2023-05-23T17:59:55.489Z,98810.13
2023-05-23T18:02:22.957Z,98813.09
2023-05-23T18:04:50.428Z,98815.25
2023-05-23T18:07:20.793Z,98819.61
2023-05-23T18:09:48.439Z,98822.89
2023-05-23T18:12:16.505Z,98822.30
2023-05-23T18:14:44.031Z,98824.95
2023-05-23T18:17:12.713Z,98829.13
2023-05-23T18:19:40.731Z,98835.04
2023-05-23T18:22:08.264Z,98837.16
2023-05-23T18:24:36.107Z,98834.19
2023-05-23T18:27:04.623Z,98836.90
2023-05-23T18:29:32.080Z,98838.53
2023-05-23T18:31:59.435Z,98838.02
2023-05-23T18:34:28.999Z,98838.56
2023-05-23T18:36:56.798Z,98838.19
2023-05-23T18:39:24.262Z,98837.82
2023-05-23T18:41:51.659Z,98841.98
2023-05-23T18:44:20.970Z,98844.25
2023-05-23T18:46:48.570Z,98846.92
2023-05-23T18:49:16.098Z,98846.98
2023-05-23T18:51:43.597Z,98846.77
2023-05-23T18:54:10.963Z,98846.38
2023-05-23T18:56:38.242Z,98846.84
2023-05-23T18:59:05.969Z,98844.10
2023-05-23T19:01:33.283Z,98845.98
2023-05-23T19:04:00.756Z,98849.09
2023-05-23T19:06:28.259Z,98848.97
2023-05-23T19:08:55.637Z,98850.83
2023-05-23T19:11:23.102Z,98850.48
2023-05-23T19:13:50.543Z,98853.48
2023-05-23T19:16:17.945Z,98854.99
2023-05-23T19:18:45.661Z,98856.33
2023-05-23T19:21:13.051Z,98855.32
2023-05-23T19:23:40.273Z,98852.27
2023-05-23T19:26:07.785Z,98855.55
2023-05-23T19:28:35.075Z,98854.51
2023-05-23T19:31:02.327Z,98853.81
2023-05-23T19:33:29.567Z,98854.14
2023-05-23T19:35:57.157Z,98849.76
2023-05-23T19:38:24.466Z,98852.38
2023-05-23T19:40:51.726Z,98848.72
2023-05-23T19:43:19.095Z,98845.56
2023-05-23T19:45:46.383Z,98848.66
2023-05-23T19:48:14.168Z,98849.08
2023-05-23T19:50:43.722Z,98849.05
2023-05-23T19:53:11.545Z,98846.76
2023-05-23T19:55:38.782Z,98848.48
2023-05-23T19:58:06.094Z,98849.34
2023-05-23T20:00:33.372Z,98852.06
2023-05-23T20:03:00.659Z,98856.92
2023-05-23T20:05:27.977Z,98859.15
2023-05-23T20:07:55.273Z,98863.84
2023-05-23T20:10:22.515Z,98862.27
2023-05-23T20:12:49.834Z,98860.02
2023-05-23T20:15:21.738Z,98860.61
2023-05-23T20:17:55.201Z,98860.31
2023-05-23T20:20:22.453Z,98862.52
2023-05-23T20:22:49.715Z,98868.45
2023-05-23T20:25:17.621Z,98867.53
2023-05-23T20:27:44.847Z,98865.52
2023-05-23T20:30:12.567Z,98869.42
2023-05-23T20:32:39.998Z,98869.96
2023-05-23T20:35:07.380Z,98872.66
2023-05-23T20:37:36.260Z,98875.83
2023-05-23T20:40:03.737Z,98872.51
2023-05-23T20:42:32.739Z,98871.34
2023-05-23T20:44:59.962Z,98871.16
2023-05-23T20:47:27.740Z,98866.94
2023-05-23T20:49:56.067Z,98873.06
2023-05-23T20:52:24.531Z,98871.02
2023-05-23T20:54:52.532Z,98872.92
2023-05-23T20:57:19.909Z,98870.65
2023-05-23T20:59:47.238Z,98871.14
2023-05-23T21:02:14.647Z,98872.77
2023-05-23T21:04:41.929Z,98873.34
2023-05-23T21:07:09.208Z,98874.45
2023-05-23T21:09:36.461Z,98880.48
2023-05-23T21:12:08.819Z,98881.69
2023-05-23T21:14:36.162Z,98886.94
2023-05-23T21:17:03.601Z,98887.14
2023-05-23T21:19:31.092Z,98886.95
2023-05-23T21:21:58.458Z,98885.14
2023-05-23T21:24:25.967Z,98886.17
2023-05-23T21:26:53.309Z,98881.84
2023-05-23T21:29:20.615Z,98886.24
2023-05-23T21:31:48.047Z,98884.34
2023-05-23T21:34:23.895Z,98885.70
2023-05-23T21:36:52.330Z,98892.83
2023-05-23T21:39:19.713Z,98889.25
2023-05-23T21:41:46.926Z,98890.16
2023-05-23T21:44:15.674Z,98890.38
2023-05-23T21:46:42.911Z,98890.83
2023-05-23T21:49:10.454Z,98892.05
2023-05-23T21:51:38.049Z,98890.52
2023-05-23T21:54:05.322Z,98895.10
2023-05-23T21:56:32.607Z,98894.10
2023-05-23T21:58:59.849Z,98891.30
2023-05-23T22:01:27.101Z,98887.15
2023-05-23T22:03:54.479Z,98882.31
2023-05-23T22:06:21.911Z,98886.79
2023-05-23T22:08:49.150Z,98887.63
2023-05-23T22:11:16.401Z,98887.22
2023-05-23T22:13:43.740Z,98889.97
2023-05-23T22:16:11.011Z,98894.69
2023-05-23T22:18:51.524Z,98895.40
2023-05-23T22:21:19.494Z,98901.29
2023-05-23T22:23:46.794Z,98901.16
2023-05-23T22:26:14.104Z,98899.36
2023-05-23T22:28:41.465Z,98895.89
2023-05-23T22:31:10.379Z,98896.09
2023-05-23T22:33:39.884Z,98896.05
2023-05-23T22:36:07.796Z,98894.71
2023-05-23T22:38:35.915Z,98899.64
2023-05-23T22:41:03.319Z,98900.55
2023-05-23T22:43:30.881Z,98896.77
2023-05-23T22:45:58.112Z,98901.23
2023-05-23T22:48:25.980Z,98904.10
2023-05-23T22:50:57.169Z,98906.52
2023-05-23T22:53:24.473Z,98906.05
2023-05-23T22:55:51.772Z,98902.86
2023-05-23T22:58:19.038Z,98904.65
2023-05-23T23:00:46.387Z,98897.34
2023-05-23T23:03:15.450Z,98896.05
2023-05-23T23:05:42.966Z,98892.73
2023-05-23T23:08:10.226Z,98896.39
2023-05-23T23:10:37.482Z,98896.43
2023-05-23T23:13:04.778Z,98893.20
2023-05-23T23:15:33.940Z,98893.52
2023-05-23T23:18:01.485Z,98893.21
2023-05-23T23:20:29.228Z,98887.59
2023-05-23T23:22:57.577Z,98886.77
2023-05-23T23:25:24.885Z,98884.10
2023-05-23T23:27:52.298Z,98885.50
2023-05-23T23:30:19.551Z,98878.70
2023-05-23T23:32:46.991Z,98880.52
2023-05-23T23:35:14.368Z,98876.73
2023-05-23T23:37:41.599Z,98871.33
2023-05-23T23:40:09.102Z,98870.16
2023-05-23T23:42:36.437Z,98868.48
2023-05-23T23:45:04.095Z,98870.11
2023-05-23T23:47:32.639Z,98867.84
2023-05-23T23:50:00.030Z,98867.45
2023-05-23T23:52:28.133Z,98868.44
2023-05-23T23:54:55.468Z,98866.10
2023-05-23T23:57:22.714Z,98865.98
2023-05-23T23:59:50.036Z,98866.88
